< < Back
Terminal Aerodrome Forecast


Current Version              Previous Versions:   1  2  3  4  5  6  7  8  9  

Terminal Aerodrome Forecast

340
FTUS44 KHUN 280520
TAFHSV
TAF
KHSV 280520Z 2806/2906 16003KT P6SM SCT050 BKN200
     FM281500 18008KT P6SM SCT060 BKN200
     FM282200 14005KT P6SM BKN050 OVC130=

Latest METAR

289
SAUS80 KWBC 280700 RRE
MTRHSV
METAR KHSV 280753Z 13007KT 10SM BKN070 23/17 A3001 RMK AO2 SLP153
T02280167


USA.gov is the U.S. government's official web portal to all federal, state and local government web resources and services.